Latest Weather Observations for Sellicks Hill

IDS60801

Issued at 1:51 am CDT Tuesday 30 November 2021 (issued every 10 minutes, with the page automatically refreshed every 10 minutes)

About weather observations | Map of weather stations | Latest weather observations for SA | Other Formats
Station Details ID: 023886 Name: MOUNT TERRIBLE RADAR Lat: -35.33 Lon: 138.50 Height: 385.7 m
Data from the previous 72 hours. | See also: Recent months at Sellicks Hill
Date/Time
CDT
Temp
°C
App
Temp
°C
Dew
Point
°C
Rel
Hum
%
Delta-T
°C
Wind Press
QNH
hPa
Press
MSL
hPa
Rain since
9am
mm
Dir  Spd
km/h
Gust
km/h
Spd
kts
Gust
kts
30/01:30am - - - - - ESE 19 28 10 15 - - -
30/01:00am - - - - - ESE 20 30 11 16 - - -
30/12:30am - - - - - ESE 19 26 10 14 - - -
30/12:00am - - - - - ESE 17 22 9 12 - - -
 
Date/Time
CDT
Temp
°C
App
Temp
°C
Dew
Point
°C
Rel
Hum
%
Delta-T
°C
Wind Press
QNH
hPa
Press
MSL
hPa
Rain since
9am
mm
Dir  Spd
km/h
Gust
km/h
Spd
kts
Gust
kts
29/11:30pm - - - - - SE 22 26 12 14 - - -
29/11:00pm - - - - - SE 22 26 12 14 - - -
29/10:30pm - - - - - SE 20 24 11 13 - - -
29/10:00pm - - - - - SE 20 24 11 13 - - -
29/09:30pm - - - - - SE 20 24 11 13 - - -
29/09:00pm - - - - - SE 17 20 9 11 - - -
29/08:30pm - - - - - SE 20 22 11 12 - - -
29/08:00pm - - - - - SSE 19 20 10 11 - - -
29/07:30pm - - - - - SSE 15 17 8 9 - - -
29/07:00pm - - - - - SSE 15 17 8 9 - - -
29/06:30pm - - - - - SSE 13 17 7 9 - - -
29/06:00pm - - - - - SW 4 11 2 6 - - -
29/05:30pm - - - - - NW 4 9 2 5 - - -
29/05:00pm - - - - - SW 4 9 2 5 - - -
29/04:30pm - - - - - NW 4 9 2 5 - - -
29/04:00pm - - - - - NW 4 9 2 5 - - -
29/03:30pm - - - - - NW 7 17 4 9 - - -
29/03:00pm - - - - - NW 6 11 3 6 - - -
29/02:30pm - - - - - NW 6 11 3 6 - - -
29/02:00pm - - - - - NW 7 15 4 8 - - -
29/01:30pm - - - - - NNW 6 17 3 9 - - -
29/01:00pm - - - - - N 6 11 3 6 - - -
29/12:30pm - - - - - NNW 7 13 4 7 - - -
29/12:00pm - - - - - NW 6 9 3 5 - - -
29/11:30am - - - - - NW 6 9 3 5 - - -
29/11:00am - - - - - NNW 7 13 4 7 - - -
29/10:30am - - - - - NNE 6 9 3 5 - - -
29/10:00am - - - - - NNE 6 9 3 5 - - -
29/09:30am - - - - - NE 6 9 3 5 - - -
29/09:00am - - - - - NNE 6 7 3 4 - - -
29/08:30am - - - - - NNW 4 7 2 4 - - -
29/08:00am - - - - - NE 2 4 1 2 - - -
29/07:30am - - - - - E 2 6 1 3 - - -
29/07:00am - - - - - E 9 13 5 7 - - -
29/06:30am - - - - - ESE 13 19 7 10 - - -
29/06:00am - - - - - ESE 13 17 7 9 - - -
29/05:30am - - - - - ESE 13 17 7 9 - - -
29/05:00am - - - - - SE 17 19 9 10 - - -
29/04:30am - - - - - SE 19 20 10 11 - - -
29/04:00am - - - - - SE 17 20 9 11 - - -
29/03:30am - - - - - SE 17 20 9 11 - - -
29/03:00am - - - - - SSE 19 20 10 11 - - -
29/02:30am - - - - - SSE 19 19 10 10 - - -
29/02:00am - - - - - SSE 17 19 9 10 - - -
29/01:30am - - - - - SSE 17 19 9 10 - - -
29/01:00am - - - - - SSE 20 24 11 13 - - -
29/12:30am - - - - - SSE 24 26 13 14 - - -
29/12:00am - - - - - SSE 22 26 12 14 - - -
 
Date/Time
CDT
Temp
°C
App
Temp
°C
Dew
Point
°C
Rel
Hum
%
Delta-T
°C
Wind Press
QNH
hPa
Press
MSL
hPa
Rain since
9am
mm
Dir  Spd
km/h
Gust
km/h
Spd
kts
Gust
kts
28/11:30pm - - - - - SSE 22 26 12 14 - - -
28/11:00pm - - - - - SSE 26 30 14 16 - - -
28/10:30pm - - - - - SSE 24 30 13 16 - - -
28/10:00pm - - - - - SSE 26 32 14 17 - - -
28/09:30pm - - - - - SSE 28 32 15 17 - - -
28/09:00pm - - - - - SSE 28 33 15 18 - - -
28/08:30pm - - - - - SSE 30 32 16 17 - - -
28/08:00pm - - - - - S 26 32 14 17 - - -
28/07:30pm - - - - - SSE 24 28 13 15 - - -
28/07:00pm - - - - - SSE 26 32 14 17 - - -
28/06:30pm - - - - - SSE 28 33 15 18 - - -
28/06:00pm - - - - - SSE 28 32 15 17 - - -
28/05:30pm - - - - - S 20 30 11 16 - - -
28/05:00pm - - - - - S 20 30 11 16 - - -
28/04:30pm - - - - - SSE 24 32 13 17 - - -
28/04:00pm - - - - - SSE 22 30 12 16 - - -
28/03:30pm - - - - - W 7 19 4 10 - - -
28/03:00pm - - - - - WNW 9 17 5 9 - - -
28/02:30pm - - - - - WNW 7 15 4 8 - - -
28/02:00pm - - - - - WNW 6 13 3 7 - - -
28/01:30pm - - - - - SSE 6 11 3 6 - - -
28/01:00pm - - - - - SE 6 13 3 7 - - -
28/12:30pm - - - - - SE 7 15 4 8 - - -
28/12:00pm - - - - - ESE 11 17 6 9 - - -
28/11:30am - - - - - E 13 19 7 10 - - -
28/11:00am - - - - - ESE 17 26 9 14 - - -
28/10:30am - - - - - SE 22 30 12 16 - - -
28/10:00am - - - - - SE 22 30 12 16 - - -
28/09:30am - - - - - SE 22 32 12 17 - - -
28/09:00am - - - - - SE 24 30 13 16 - - -
28/08:30am - - - - - SE 26 32 14 17 - - -
28/08:00am - - - - - SE 26 32 14 17 - - -
28/07:30am - - - - - SE 22 26 12 14 - - -
28/07:00am - - - - - SE 22 30 12 16 - - -
28/06:30am - - - - - SE 24 28 13 15 - - -
28/06:00am - - - - - SE 24 28 13 15 - - -
28/05:30am - - - - - SE 24 30 13 16 - - -
28/05:00am - - - - - SE 26 30 14 16 - - -
28/04:30am - - - - - SE 28 32 15 17 - - -
28/04:00am - - - - - SE 26 30 14 16 - - -
28/03:30am - - - - - SE 26 30 14 16 - - -
28/03:00am - - - - - SE 26 30 14 16 - - -
28/02:30am - - - - - SE 26 30 14 16 - - -
28/02:00am - - - - - SE 30 35 16 19 - - -
28/01:30am - - - - - SE 33 37 18 20 - - -
28/01:00am - - - - - SSE 35 39 19 21 - - -
28/12:30am - - - - - SSE 37 43 20 23 - - -
28/12:00am - - - - - SSE 39 43 21 23 - - -
 
Date/Time
CDT
Temp
°C
App
Temp
°C
Dew
Point
°C
Rel
Hum
%
Delta-T
°C
Wind Press
QNH
hPa
Press
MSL
hPa
Rain since
9am
mm
Dir  Spd
km/h
Gust
km/h
Spd
kts
Gust
kts
27/11:30pm - - - - - SSE 41 44 22 24 - - -
27/11:00pm - - - - - SSE 44 52 24 28 - - -
27/10:30pm - - - - - SSE 50 57 27 31 - - -
27/10:00pm - - - - - SSE 48 56 26 30 - - -
27/09:30pm - - - - - SSE 44 54 24 29 - - -
27/09:00pm - - - - - SSE 46 54 25 29 - - -
27/08:30pm - - - - - S 35 43 19 23 - - -
27/08:00pm - - - - - S 35 44 19 24 - - -
27/07:30pm - - - - - S 37 50 20 27 - - -
27/07:00pm - - - - - S 39 48 21 26 - - -
27/06:30pm - - - - - S 37 46 20 25 - - -
27/06:00pm - - - - - S 30 39 16 21 - - -
27/05:30pm - - - - - SSE 37 46 20 25 - - -
27/05:00pm - - - - - SSE 35 46 19 25 - - -
27/04:30pm - - - - - SSE 35 46 19 25 - - -
27/04:00pm - - - - - S 33 48 18 26 - - -
27/03:30pm - - - - - SSE 33 44 18 24 - - -
27/03:00pm - - - - - SSE 33 43 18 23 - - -
27/02:30pm - - - - - SSE 37 46 20 25 - - -
27/02:00pm - - - - - SSE 32 39 17 21 - - -
27/01:30pm - - - - - SSE 30 41 16 22 - - -
27/01:00pm - - - - - SSE 30 39 16 21 - - -
27/12:30pm - - - - - SSE 30 37 16 20 - - -
27/12:00pm - - - - - SSE 30 37 16 20 - - -
27/11:30am - - - - - SE 30 37 16 20 - - -
27/11:00am - - - - - SSE 32 39 17 21 - - -
27/10:30am - - - - - SE 30 39 16 21 - - -
27/10:00am - - - - - SSE 32 39 17 21 - - -
27/09:30am - - - - - SE 30 37 16 20 - - -
27/09:00am - - - - - SE 22 32 12 17 - - -
27/08:30am - - - - - SE 22 35 12 19 - - -
27/08:00am - - - - - SE 24 33 13 18 - - -
27/07:30am - - - - - SE 22 33 12 18 - - -
27/07:00am - - - - - SE 22 33 12 18 - - -
27/06:30am - - - - - SE 20 28 11 15 - - -
27/06:00am - - - - - SE 19 24 10 13 - - -
27/05:30am - - - - - SE 17 24 9 13 - - -
27/05:00am - - - - - SE 24 32 13 17 - - -
27/04:30am - - - - - SE 20 26 11 14 - - -
27/04:00am - - - - - SE 24 32 13 17 - - -
27/03:30am - - - - - SE 30 41 16 22 - - -
27/03:00am - - - - - SE 32 43 17 23 - - -
27/02:30am - - - - - SE 33 41 18 22 - - -
27/02:00am - - - - - SE 35 44 19 24 - - -

Other formats

Comma delimited format used in spreadsheet applications
http://www.bom.gov.au/fwo/IDS60801/IDS60801.95679.axf

JavaScript Object Notation format (JSON) in row-major order
http://www.bom.gov.au/fwo/IDS60801/IDS60801.95679.json

Data quality

Most of these data are generated automatically and are frequently updated. Quality checks on data are not normally performed. It is possible for incorrect values to appear. Refer to information at About Latest Weather Observations and please check the disclaimer before using these data.